Terminal Aerodrome Forecast
Issued by NWS

Home | Current Version | Previous Version | Text Only | Print | Product List | Glossary On
Versions: 1 2 3 4 5 6 7 8 9 10 11 12 13 14 15 16 17 18 19 20 21 22 23 24 25 26 27 28 29
355
FTUS43 KLOT 231126
TAFDPA
TAF
KDPA 231126Z 2312/2412 36010KT 6SM -RA SCT006 OVC050
      TEMPO 2312/2315 4SM -RA BKN006
     FM231500 34010KT P6SM VCSH SCT010 BKN100 OVC150
     FM231900 31012KT P6SM SCT020 BKN200
     FM240400 30014G22KT 6SM -RA BKN010 OVC040
     FM240800 26012KT 4SM -RA OVC008=

USA.gov is the U.S. government's official web portal to all federal, state and local government web resources and services.